Airport View

Enter AWOS ICAO identifier for current METAR.

ex. KFNL

KFLY 262152Z AUTO 20006KT 10SM CLR 02/M18 A3019 RMK AO2 T00171177

26 Feb 2020 21:54

Frequency: 118.450

Phone: 719-683-5371

Other Area AWOS: KCOS - KAFF - KMNH - KFCS

TAF KCOS 261732Z 2618/2718 17008KT P6SM SCT180 FM270100 34008KT P6SM FEW190 FM271600 VRB06KT P6SM FEW250